Corinth, Vermont
Current Conditions -  °F | °C
As of 2:51 AM on Sunday 26 Oct 2014 (Local Time) from KMPV Reporting Station
Scattered Clouds Scattered Clouds  
Wind Chill: 42°   Ceiling: Unl
Heat Index: 44°   Visibility: 10mi
Dew Point: 40°   Wind: 5mph
Humidity: 85%   Direction: 150°SSE
Pressure: 29.45"   Gusts: NA
Location:  44.02°N, 72.3°W
Report Text: KMPV 260651Z AUTO 15004KT 10SM FEW038 FEW050 SCT070 07/04 A2945 RMK AO2 SLP975 T00670044 $
Loading
Personal Weather Stations






























Interactive Weather Map New forecast layout! Learn more

10-Day Weather Forecast

Advertisements
Track Severe Weather on mobile